Time;durP1;ratioP1;P1;durP2;ratioP2;P2;SDS_P1;SDS_P2;PMS_P1;PMS_P2;Temp;Humidity;BMP_temperature;BMP_pressure;BME280_temperature;BME280_humidity;BME280_pressure;Samples;Min_cycle;Max_cycle;Signal;HPM_P1;HPM_P2
2023/04/29 00:01:23;;;;;;;29.85;22.38;;;;;;;;;;5008477;28;20030;-69
2023/04/29 00:03:49;;;;;;;23.15;18.13;;;;;;;;;;5001503;28;20416;-70
2023/04/29 00:06:14;;;;;;;22.55;15.93;;;;;;;;;;5006222;28;20467;-73
2023/04/29 00:08:40;;;;;;;25.17;18.85;;;;;;;;;;5014255;28;20026;-70
2023/04/29 00:11:05;;;;;;;37.70;27.45;;;;;;;;;;5011402;28;20038;-73
2023/04/29 00:13:31;;;;;;;55.92;34.55;;;;;;;;;;5011211;28;20034;-71
2023/04/29 00:15:56;;;;;;;60.15;32.45;;;;;;;;;;5003342;28;20029;-71
2023/04/29 00:18:21;;;;;;;47.03;25.92;;;;;;;;;;5002766;28;20416;-73
2023/04/29 00:20:46;;;;;;;19.33;11.80;;;;;;;;;;5010588;28;20357;-71
2023/04/29 00:23:12;;;;;;;10.90;8.23;;;;;;;;;;5003306;28;20093;-70
2023/04/29 00:25:37;;;;;;;9.75;7.03;;;;;;;;;;5011953;28;20025;-70
2023/04/29 00:28:04;;;;;;;10.68;8.23;;;;;;;;;;5012251;28;20029;-70
2023/04/29 00:30:29;;;;;;;12.00;9.63;;;;;;;;;;5013705;28;20037;-72
2023/04/29 00:32:55;;;;;;;16.75;11.63;;;;;;;;;;5012964;28;20037;-70
2023/04/29 00:35:20;;;;;;;20.70;14.90;;;;;;;;;;5013058;28;20214;-70
2023/04/29 00:37:46;;;;;;;22.50;17.00;;;;;;;;;;5011686;28;20116;-69
2023/04/29 00:40:13;;;;;;;25.52;18.50;;;;;;;;;;5012642;28;20037;-70
2023/04/29 00:42:39;;;;;;;28.33;19.75;;;;;;;;;;5010961;28;20030;-71
2023/04/29 00:45:04;;;;;;;29.92;21.13;;;;;;;;;;5012087;28;20086;-72
2023/04/29 00:47:30;;;;;;;29.58;20.00;;;;;;;;;;5010023;28;20453;-70
2023/04/29 00:49:55;;;;;;;40.38;27.27;;;;;;;;;;5012705;28;20041;-70
2023/04/29 00:52:21;;;;;;;50.70;29.95;;;;;;;;;;5004070;28;20094;-69
2023/04/29 00:54:47;;;;;;;44.05;29.88;;;;;;;;;;5008191;28;20159;-69
2023/04/29 00:57:14;;;;;;;40.97;31.15;;;;;;;;;;5007942;28;20373;-71
2023/04/29 00:59:39;;;;;;;39.72;30.95;;;;;;;;;;5003175;28;20997;-71
2023/04/29 01:02:05;;;;;;;42.53;31.38;;;;;;;;;;5014735;28;20345;-70
2023/04/29 01:04:30;;;;;;;43.60;31.23;;;;;;;;;;5013742;28;20198;-70
2023/04/29 01:07:12;;;;;;;41.70;31.25;;;;;;;;;;5013708;28;20030;-70
2023/04/29 01:09:44;;;;;;;36.92;26.50;;;;;;;;;;5014366;28;20061;-71
2023/04/29 01:12:19;;;;;;;17.85;14.43;;;;;;;;;;5009948;28;20089;-70
2023/04/29 01:14:47;;;;;;;35.83;21.17;;;;;;;;;;5012629;28;20018;-70
2023/04/29 01:17:17;;;;;;;40.70;28.23;;;;;;;;;;5015448;28;20222;-70
2023/04/29 01:19:53;;;;;;;27.15;20.33;;;;;;;;;;5012805;28;20029;-71
2023/04/29 01:22:20;;;;;;;25.65;18.63;;;;;;;;;;5012332;28;20030;-71
2023/04/29 01:24:47;;;;;;;16.02;13.25;;;;;;;;;;5015671;28;20040;-71
2023/04/29 01:27:30;;;;;;;16.85;12.90;;;;;;;;;;5015534;28;20074;-73
2023/04/29 01:30:01;;;;;;;17.90;13.35;;;;;;;;;;5015084;28;20049;-73
2023/04/29 01:32:36;;;;;;;24.33;16.60;;;;;;;;;;5013317;28;20361;-71
2023/04/29 01:35:15;;;;;;;28.77;20.38;;;;;;;;;;5010124;28;20041;-74
2023/04/29 01:37:41;;;;;;;;;;;;;;;;;;5014152;28;20076;-72
2023/04/29 01:40:06;;;;;;;21.77;14.80;;;;;;;;;;5012931;28;20994;-70
2023/04/29 01:42:44;;;;;;;16.73;13.63;;;;;;;;;;5015555;28;20400;-72
2023/04/29 01:45:10;;;;;;;16.52;13.25;;;;;;;;;;5011965;28;20037;-71
2023/04/29 01:47:36;;;;;;;22.63;16.77;;;;;;;;;;5011911;28;20022;-72
2023/04/29 01:50:01;;;;;;;23.10;17.23;;;;;;;;;;5005124;28;20460;-74
2023/04/29 01:52:27;;;;;;;27.80;20.38;;;;;;;;;;5014112;28;20381;-70
2023/04/29 01:54:53;;;;;;;25.95;17.15;;;;;;;;;;5015548;28;20017;-71
2023/04/29 01:57:18;;;;;;;20.55;14.95;;;;;;;;;;5010175;28;20033;-71
2023/04/29 01:59:43;;;;;;;16.63;12.52;;;;;;;;;;5012272;28;20033;-71
2023/04/29 02:02:09;;;;;;;36.47;21.92;;;;;;;;;;5015115;28;20072;-70
2023/04/29 02:04:34;;;;;;;29.88;20.20;;;;;;;;;;5011800;28;20113;-74
2023/04/29 02:07:00;;;;;;;29.38;17.85;;;;;;;;;;5009009;28;20021;-71
2023/04/29 02:09:25;;;;;;;15.93;11.23;;;;;;;;;;5009084;28;20440;-73
2023/04/29 02:11:51;;;;;;;16.02;11.85;;;;;;;;;;5011929;28;20125;-75
2023/04/29 02:14:16;;;;;;;15.20;10.93;;;;;;;;;;5014745;28;20441;-71
2023/04/29 02:16:45;;;;;;;13.45;10.10;;;;;;;;;;5014116;28;20026;-70
2023/04/29 02:19:10;;;;;;;13.55;10.80;;;;;;;;;;5014612;28;20026;-73
2023/04/29 02:21:36;;;;;;;12.18;9.32;;;;;;;;;;5014193;28;20441;-70
2023/04/29 02:24:01;;;;;;;16.13;11.23;;;;;;;;;;5013887;28;20371;-74
2023/04/29 02:26:26;;;;;;;18.60;13.20;;;;;;;;;;5011947;28;20509;-71
2023/04/29 02:28:52;;;;;;;59.30;40.22;;;;;;;;;;5013892;28;20068;-71
2023/04/29 02:31:17;;;;;;;38.33;27.15;;;;;;;;;;5011089;28;20041;-71
2023/04/29 02:33:43;;;;;;;25.75;19.08;;;;;;;;;;5014386;28;20021;-70
2023/04/29 02:36:08;;;;;;;18.08;12.43;;;;;;;;;;5006178;28;20371;-70
2023/04/29 02:38:33;;;;;;;26.77;18.33;;;;;;;;;;5008976;28;20049;-71
2023/04/29 02:40:59;;;;;;;15.65;11.77;;;;;;;;;;5008812;28;20141;-71
2023/04/29 02:43:25;;;;;;;7.82;6.95;;;;;;;;;;5013669;28;20070;-72
2023/04/29 02:45:50;;;;;;;11.50;7.20;;;;;;;;;;5012841;28;20033;-73
2023/04/29 02:48:15;;;;;;;7.10;6.40;;;;;;;;;;5014473;28;20029;-75
2023/04/29 02:50:41;;;;;;;7.88;6.88;;;;;;;;;;5014230;28;20097;-71
2023/04/29 02:53:06;;;;;;;8.73;6.93;;;;;;;;;;5011204;28;20041;-72
2023/04/29 02:55:32;;;;;;;9.57;6.55;;;;;;;;;;5013219;28;20390;-71
2023/04/29 02:57:57;;;;;;;7.10;6.40;;;;;;;;;;5012599;28;20026;-72
2023/04/29 03:00:23;;;;;;;7.97;5.95;;;;;;;;;;5010980;28;20030;-70
2023/04/29 03:02:48;;;;;;;10.88;6.80;;;;;;;;;;5012920;28;20455;-74
2023/04/29 03:05:14;;;;;;;8.52;7.60;;;;;;;;;;5010393;28;20115;-70
2023/04/29 03:07:39;;;;;;;9.90;7.60;;;;;;;;;;5011560;28;20072;-72
2023/04/29 03:10:05;;;;;;;10.80;7.60;;;;;;;;;;5010744;28;20349;-71
2023/04/29 03:12:30;;;;;;;10.98;8.98;;;;;;;;;;5013510;28;20060;-71
2023/04/29 03:14:56;;;;;;;15.50;11.10;;;;;;;;;;5012570;28;20398;-72
2023/04/29 03:17:21;;;;;;;12.05;9.77;;;;;;;;;;5012744;28;20101;-72
2023/04/29 03:19:47;;;;;;;12.57;9.23;;;;;;;;;;5001979;28;20444;-70
2023/04/29 03:22:12;;;;;;;10.80;8.25;;;;;;;;;;5009408;28;20036;-72
2023/04/29 03:24:38;;;;;;;12.18;7.13;;;;;;;;;;5011461;28;20030;-72
2023/04/29 03:27:04;;;;;;;13.43;8.52;;;;;;;;;;5011401;28;20033;-75
2023/04/29 03:29:32;;;;;;;16.58;10.18;;;;;;;;;;5008877;28;20065;-75
2023/04/29 03:31:57;;;;;;;12.38;8.90;;;;;;;;;;5010613;28;20030;-70
2023/04/29 03:34:23;;;;;;;13.75;9.98;;;;;;;;;;5008462;28;20071;-75
2023/04/29 03:36:50;;;;;;;7.82;7.03;;;;;;;;;;5013952;28;21372;-71
2023/04/29 03:39:15;;;;;;;10.00;6.90;;;;;;;;;;5001539;28;20099;-74
2023/04/29 03:41:40;;;;;;;12.30;8.85;;;;;;;;;;5010483;28;20033;-71
2023/04/29 03:44:06;;;;;;;16.00;11.82;;;;;;;;;;5011579;28;20025;-72
2023/04/29 03:46:31;;;;;;;35.33;27.30;;;;;;;;;;5011059;28;20053;-72
2023/04/29 03:48:57;;;;;;;35.72;29.80;;;;;;;;;;4999383;28;20032;-70
2023/04/29 03:51:26;;;;;;;25.40;21.42;;;;;;;;;;4994150;28;20190;-74
2023/04/29 03:53:52;;;;;;;21.07;18.57;;;;;;;;;;4996204;28;20030;-71
2023/04/29 03:56:17;;;;;;;23.58;20.25;;;;;;;;;;4996448;28;20312;-70
2023/04/29 03:58:43;;;;;;;29.90;26.70;;;;;;;;;;4999617;28;20033;-70
2023/04/29 04:01:09;;;;;;;24.30;18.83;;;;;;;;;;4996936;28;20025;-72
2023/04/29 04:03:34;;;;;;;21.08;13.55;;;;;;;;;;4996868;28;20204;-70
2023/04/29 04:06:00;;;;;;;13.02;9.60;;;;;;;;;;4995814;28;20045;-71
2023/04/29 04:08:25;;;;;;;21.98;14.77;;;;;;;;;;4995282;28;20037;-71
2023/04/29 04:10:51;;;;;;;24.90;17.48;;;;;;;;;;4999298;28;20065;-71
2023/04/29 04:13:16;;;;;;;24.25;16.55;;;;;;;;;;4995831;28;20082;-71
2023/04/29 04:15:41;;;;;;;50.33;34.50;;;;;;;;;;4996183;28;20473;-74
2023/04/29 04:18:07;;;;;;;76.55;49.25;;;;;;;;;;4997601;28;20018;-72
2023/04/29 04:20:32;;;;;;;59.40;40.40;;;;;;;;;;4998301;28;20086;-73
2023/04/29 04:22:57;;;;;;;22.30;15.63;;;;;;;;;;4999747;28;20029;-71
2023/04/29 04:25:23;;;;;;;97.68;79.60;;;;;;;;;;4996482;28;20146;-75
2023/04/29 04:27:48;;;;;;;77.20;63.67;;;;;;;;;;4998791;28;20028;-72
2023/04/29 04:30:14;;;;;;;31.45;26.13;;;;;;;;;;5004980;28;20422;-71
2023/04/29 04:32:40;;;;;;;33.00;22.70;;;;;;;;;;5012150;28;20025;-70
2023/04/29 04:35:07;;;;;;;32.53;24.48;;;;;;;;;;5008418;28;20054;-70
2023/04/29 04:37:32;;;;;;;31.50;24.67;;;;;;;;;;5002867;28;20026;-72
2023/04/29 04:39:57;;;;;;;77.28;49.25;;;;;;;;;;5006092;28;20377;-71
2023/04/29 04:42:23;;;;;;;62.45;39.05;;;;;;;;;;5010466;28;20133;-74
2023/04/29 04:44:48;;;;;;;40.50;29.23;;;;;;;;;;5011911;28;20409;-71
2023/04/29 04:47:13;;;;;;;30.90;18.08;;;;;;;;;;5010784;28;20036;-71
2023/04/29 04:49:39;;;;;;;24.90;16.10;;;;;;;;;;5004873;28;20029;-70
2023/04/29 04:52:05;;;;;;;20.75;15.43;;;;;;;;;;5009792;28;20033;-70
2023/04/29 04:54:32;;;;;;;12.55;9.70;;;;;;;;;;5011129;28;20393;-70
2023/04/29 04:56:57;;;;;;;13.15;10.25;;;;;;;;;;5007927;28;20500;-71
2023/04/29 04:59:22;;;;;;;19.50;13.55;;;;;;;;;;5010122;28;20101;-71
2023/04/29 05:01:48;;;;;;;24.45;16.05;;;;;;;;;;5012325;28;20452;-73
2023/04/29 05:04:14;;;;;;;19.65;15.40;;;;;;;;;;5012119;28;20026;-70
2023/04/29 05:06:40;;;;;;;23.13;15.43;;;;;;;;;;5007122;28;20037;-70
2023/04/29 05:09:05;;;;;;;22.95;15.15;;;;;;;;;;5007725;28;20030;-71
2023/04/29 05:11:30;;;;;;;26.27;19.17;;;;;;;;;;5009682;28;20025;-70
2023/04/29 05:13:56;;;;;;;25.05;18.63;;;;;;;;;;5008800;28;20025;-74
2023/04/29 05:16:21;;;;;;;39.38;27.75;;;;;;;;;;5009483;28;20036;-73
2023/04/29 05:18:46;;;;;;;40.72;28.70;;;;;;;;;;5010702;28;20026;-72
2023/04/29 05:21:12;;;;;;;33.65;23.10;;;;;;;;;;5011663;28;20030;-73
2023/04/29 05:23:37;;;;;;;24.50;18.95;;;;;;;;;;5003842;28;20049;-71
2023/04/29 05:26:03;;;;;;;24.90;16.80;;;;;;;;;;5011367;28;20760;-72
2023/04/29 05:28:28;;;;;;;18.55;13.18;;;;;;;;;;5010762;28;20048;-70
2023/04/29 05:30:54;;;;;;;19.95;14.20;;;;;;;;;;5009003;28;20025;-71
2023/04/29 05:33:19;;;;;;;22.30;17.58;;;;;;;;;;4999236;28;20489;-71
2023/04/29 05:35:45;;;;;;;25.15;19.95;;;;;;;;;;4995671;28;20115;-71
2023/04/29 05:38:10;;;;;;;39.97;28.75;;;;;;;;;;4995788;28;20083;-72
2023/04/29 05:40:35;;;;;;;44.80;35.33;;;;;;;;;;4996734;28;20713;-71
2023/04/29 05:43:01;;;;;;;38.45;27.70;;;;;;;;;;4997870;28;20065;-75
2023/04/29 05:45:26;;;;;;;30.17;22.10;;;;;;;;;;5004377;28;20083;-72
2023/04/29 05:47:52;;;;;;;25.15;19.35;;;;;;;;;;5011097;28;20029;-71
2023/04/29 05:50:17;;;;;;;23.38;16.65;;;;;;;;;;5012634;28;20121;-70
2023/04/29 05:52:42;;;;;;;20.45;14.40;;;;;;;;;;5011872;28;20033;-71
2023/04/29 05:55:08;;;;;;;41.75;32.83;;;;;;;;;;5002122;28;20025;-72
2023/04/29 05:57:33;;;;;;;58.47;44.47;;;;;;;;;;5013348;28;20025;-73
2023/04/29 05:59:59;;;;;;;47.92;34.15;;;;;;;;;;5004420;28;20014;-74
2023/04/29 06:02:25;;;;;;;37.25;27.20;;;;;;;;;;5005113;28;20364;-71
2023/04/29 06:04:50;;;;;;;28.42;22.10;;;;;;;;;;5010206;28;20030;-72
2023/04/29 06:07:16;;;;;;;23.02;18.13;;;;;;;;;;5012969;28;20430;-71
2023/04/29 06:09:42;;;;;;;28.17;22.27;;;;;;;;;;5013606;28;20083;-70
2023/04/29 06:12:08;;;;;;;24.33;18.50;;;;;;;;;;5008665;28;20045;-70
2023/04/29 06:14:33;;;;;;;24.80;20.33;;;;;;;;;;5001301;28;20022;-70
2023/04/29 06:16:58;;;;;;;39.22;30.30;;;;;;;;;;5004801;28;20058;-71
2023/04/29 06:19:24;;;;;;;42.78;35.80;;;;;;;;;;5011512;28;20144;-73
2023/04/29 06:21:49;;;;;;;100.93;78.47;;;;;;;;;;5013534;28;20037;-73
2023/04/29 06:24:15;;;;;;;81.70;56.67;;;;;;;;;;5014868;28;20066;-74
2023/04/29 06:26:40;;;;;;;76.43;50.10;;;;;;;;;;5010893;28;20345;-74
2023/04/29 06:29:06;;;;;;;17.98;14.20;;;;;;;;;;5002107;28;20369;-72
2023/04/29 06:31:31;;;;;;;11.77;10.00;;;;;;;;;;5014873;28;20411;-72
2023/04/29 06:33:56;;;;;;;12.05;9.60;;;;;;;;;;5004390;28;20029;-72
2023/04/29 06:36:22;;;;;;;29.10;15.02;;;;;;;;;;4999752;28;20057;-72
2023/04/29 06:38:47;;;;;;;35.47;24.63;;;;;;;;;;5008271;28;20377;-72
2023/04/29 06:41:12;;;;;;;39.72;26.60;;;;;;;;;;5013530;28;20404;-72
2023/04/29 06:43:38;;;;;;;64.60;45.47;;;;;;;;;;5007269;28;20185;-73
2023/04/29 06:46:03;;;;;;;39.80;28.60;;;;;;;;;;5008548;28;20029;-73
2023/04/29 06:48:28;;;;;;;54.20;37.70;;;;;;;;;;5014016;28;20041;-75
2023/04/29 06:50:55;;;;;;;42.00;31.35;;;;;;;;;;5014257;28;20159;-73
2023/04/29 06:53:20;;;;;;;43.47;32.10;;;;;;;;;;5011825;28;20034;-72
2023/04/29 06:55:46;;;;;;;44.30;29.95;;;;;;;;;;5008518;28;20365;-72
2023/04/29 06:58:15;;;;;;;31.52;22.00;;;;;;;;;;5003887;28;20082;-72
2023/04/29 07:00:43;;;;;;;20.40;14.27;;;;;;;;;;5010763;28;20112;-72
2023/04/29 07:03:10;;;;;;;34.70;22.20;;;;;;;;;;5014182;28;20060;-76
2023/04/29 07:05:36;;;;;;;32.28;20.00;;;;;;;;;;5013345;28;20045;-72
2023/04/29 07:08:02;;;;;;;46.03;30.75;;;;;;;;;;5013136;28;20174;-72
2023/04/29 07:10:28;;;;;;;33.17;21.63;;;;;;;;;;5012791;28;21766;-72
2023/04/29 07:12:53;;;;;;;58.92;34.50;;;;;;;;;;4999822;28;20070;-72
2023/04/29 07:15:19;;;;;;;98.25;57.35;;;;;;;;;;5013918;28;20068;-73
2023/04/29 07:17:44;;;;;;;50.22;34.42;;;;;;;;;;5009431;28;20052;-73
2023/04/29 07:20:10;;;;;;;22.60;17.55;;;;;;;;;;5011237;28;20722;-72
2023/04/29 07:22:35;;;;;;;23.00;16.10;;;;;;;;;;5005551;28;20025;-70
2023/04/29 07:25:01;;;;;;;21.10;16.48;;;;;;;;;;5009517;28;20045;-71
2023/04/29 07:27:27;;;;;;;17.42;12.20;;;;;;;;;;5012917;28;20033;-71
2023/04/29 07:29:52;;;;;;;17.77;12.60;;;;;;;;;;5007466;28;20045;-71
2023/04/29 07:32:18;;;;;;;14.43;10.27;;;;;;;;;;5001519;28;20018;-74
2023/04/29 07:34:43;;;;;;;11.93;10.63;;;;;;;;;;5001665;28;20057;-73
2023/04/29 07:37:08;;;;;;;18.48;14.35;;;;;;;;;;5005404;28;20110;-72
2023/04/29 07:39:34;;;;;;;20.92;16.45;;;;;;;;;;5000993;28;20476;-73
2023/04/29 07:42:00;;;;;;;24.70;19.17;;;;;;;;;;5001309;28;20492;-72
2023/04/29 07:44:25;;;;;;;19.92;16.73;;;;;;;;;;5002217;28;20443;-73
2023/04/29 07:46:50;;;;;;;44.38;33.53;;;;;;;;;;5001354;28;20068;-72
2023/04/29 07:49:16;;;;;;;40.63;31.15;;;;;;;;;;5001062;28;20021;-71
2023/04/29 07:51:41;;;;;;;14.27;10.00;;;;;;;;;;5001237;28;20402;-75
2023/04/29 07:54:07;;;;;;;8.48;6.63;;;;;;;;;;5000061;28;20440;-75
2023/04/29 07:56:32;;;;;;;9.75;7.00;;;;;;;;;;5001998;28;20029;-72
2023/04/29 07:58:58;;;;;;;13.07;6.70;;;;;;;;;;5001533;28;20025;-72
2023/04/29 08:01:24;;;;;;;14.65;10.43;;;;;;;;;;4999021;28;20038;-72
2023/04/29 08:03:49;;;;;;;12.30;8.93;;;;;;;;;;4999499;28;20100;-71
2023/04/29 08:06:14;;;;;;;12.32;8.23;;;;;;;;;;5000383;28;20068;-70
2023/04/29 08:08:40;;;;;;;16.80;10.00;;;;;;;;;;4999306;28;20037;-70
2023/04/29 08:11:05;;;;;;;17.60;12.38;;;;;;;;;;5001808;28;20033;-71
2023/04/29 08:13:30;;;;;;;16.35;11.15;;;;;;;;;;5000964;28;20034;-71
2023/04/29 08:15:56;;;;;;;30.13;22.08;;;;;;;;;;5000967;28;20026;-72
2023/04/29 08:18:21;;;;;;;29.05;23.83;;;;;;;;;;5000735;28;20429;-72
2023/04/29 08:20:48;;;;;;;22.75;16.38;;;;;;;;;;5008091;28;20041;-73
2023/04/29 08:23:13;;;;;;;20.63;15.30;;;;;;;;;;5010434;28;20033;-69
2023/04/29 08:25:40;;;;;;;18.67;16.20;;;;;;;;;;4996448;28;20478;-71
2023/04/29 08:28:06;;;;;;;15.15;12.27;;;;;;;;;;4997204;28;20018;-73
2023/04/29 08:30:32;;;;;;;19.40;17.08;;;;;;;;;;5001138;28;20023;-70
2023/04/29 08:32:57;;;;;;;19.02;14.68;;;;;;;;;;5006019;28;20037;-69
2023/04/29 08:35:23;;;;;;;23.40;17.27;;;;;;;;;;5014602;28;20025;-70
2023/04/29 08:37:48;;;;;;;18.05;12.23;;;;;;;;;;5010095;28;20313;-69
2023/04/29 08:40:13;;;;;;;16.48;12.98;;;;;;;;;;5009308;28;20026;-72
2023/04/29 08:42:40;;;;;;;20.75;16.17;;;;;;;;;;5004611;28;20029;-71
2023/04/29 08:45:05;;;;;;;16.27;12.05;;;;;;;;;;5010772;28;20475;-70
2023/04/29 08:47:31;;;;;;;17.38;13.35;;;;;;;;;;5010020;28;20026;-72
2023/04/29 08:50:04;;;;;;;14.73;10.52;;;;;;;;;;5012183;28;20021;-73
2023/04/29 08:52:31;;;;;;;18.73;13.02;;;;;;;;;;5009547;28;20117;-70
2023/04/29 08:54:56;;;;;;;11.77;9.10;;;;;;;;;;5003423;28;20030;-71
2023/04/29 08:57:22;;;;;;;13.35;9.07;;;;;;;;;;5011627;28;20033;-70
2023/04/29 08:59:48;;;;;;;13.43;10.95;;;;;;;;;;4999226;28;20033;-71
2023/04/29 09:02:16;;;;;;;12.68;10.75;;;;;;;;;;5001372;28;20052;-71
2023/04/29 09:04:42;;;;;;;39.47;24.13;;;;;;;;;;5000347;28;20030;-74
2023/04/29 09:07:09;;;;;;;34.83;24.95;;;;;;;;;;5002587;28;20025;-71
2023/04/29 09:09:35;;;;;;;33.33;23.70;;;;;;;;;;5000947;28;20036;-72
2023/04/29 09:12:00;;;;;;;27.50;19.05;;;;;;;;;;4999308;28;20029;-71
2023/04/29 09:14:29;;;;;;;23.95;17.38;;;;;;;;;;4997029;28;20036;-72
2023/04/29 09:16:54;;;;;;;21.08;14.60;;;;;;;;;;4996589;28;20025;-71
2023/04/29 09:19:33;;;;;;;23.67;14.25;;;;;;;;;;4998011;28;20041;-71
2023/04/29 09:21:59;;;;;;;22.60;16.58;;;;;;;;;;4998412;28;20167;-71
2023/04/29 09:24:27;;;;;;;12.93;9.30;;;;;;;;;;5000245;28;20065;-71
2023/04/29 09:26:53;;;;;;;19.55;13.77;;;;;;;;;;5001323;28;20149;-71
2023/04/29 09:29:19;;;;;;;97.68;66.03;;;;;;;;;;5005937;28;20041;-72
2023/04/29 09:31:45;;;;;;;33.40;23.27;;;;;;;;;;5005048;28;20890;-71
2023/04/29 09:34:11;;;;;;;24.30;16.70;;;;;;;;;;5013578;28;20494;-72
2023/04/29 09:36:41;;;;;;;44.65;32.63;;;;;;;;;;5009768;28;20029;-70
2023/04/29 09:39:12;;;;;;;32.90;25.10;;;;;;;;;;5008567;28;20539;-71
2023/04/29 09:41:42;;;;;;;9.40;7.65;;;;;;;;;;4998778;28;20467;-72
2023/04/29 09:44:07;;;;;;;;;;;;;;;;;;4998902;28;20033;-72
2023/04/29 09:46:33;;;;;;;12.77;7.50;;;;;;;;;;4996919;28;20286;-71
2023/04/29 09:48:58;;;;;;;14.00;10.30;;;;;;;;;;5002752;28;20022;-71
2023/04/29 09:51:24;;;;;;;10.23;8.25;;;;;;;;;;5003796;28;20038;-72
2023/04/29 09:53:49;;;;;;;13.30;10.43;;;;;;;;;;5018345;28;20017;-71
2023/04/29 09:56:15;;;;;;;7.90;6.25;;;;;;;;;;5015436;28;20038;-71
2023/04/29 09:58:40;;;;;;;10.75;7.30;;;;;;;;;;5001469;28;20038;-73
2023/04/29 10:01:07;;;;;;;16.50;7.90;;;;;;;;;;5012403;28;20033;-71
2023/04/29 10:03:36;;;;;;;11.25;6.47;;;;;;;;;;5015216;28;20036;-70
2023/04/29 10:06:05;;;;;;;10.15;7.13;;;;;;;;;;5014459;28;20399;-71
2023/04/29 10:08:31;;;;;;;7.57;6.50;;;;;;;;;;5007358;28;20495;-68
2023/04/29 10:10:58;;;;;;;9.65;8.65;;;;;;;;;;5003690;28;20174;-70
2023/04/29 10:13:25;;;;;;;11.30;9.38;;;;;;;;;;5002336;28;20108;-73
2023/04/29 10:15:56;;;;;;;10.40;8.15;;;;;;;;;;5001201;28;20034;-71
2023/04/29 10:18:25;;;;;;;16.15;12.93;;;;;;;;;;5001951;28;20087;-73
2023/04/29 10:20:51;;;;;;;16.80;13.60;;;;;;;;;;5001392;28;20379;-71
2023/04/29 10:23:16;;;;;;;18.33;16.00;;;;;;;;;;4998466;28;20064;-70
2023/04/29 10:25:43;;;;;;;12.40;9.90;;;;;;;;;;5002318;28;20348;-71
2023/04/29 10:28:13;;;;;;;10.45;7.88;;;;;;;;;;4999156;28;20025;-71
2023/04/29 10:30:39;;;;;;;8.93;6.65;;;;;;;;;;5006725;28;20025;-70
2023/04/29 10:33:05;;;;;;;8.52;5.90;;;;;;;;;;5008676;28;20038;-72
2023/04/29 10:35:32;;;;;;;9.50;6.13;;;;;;;;;;5009622;28;20077;-70
2023/04/29 10:37:59;;;;;;;12.43;10.68;;;;;;;;;;5006205;28;20110;-71
2023/04/29 10:40:30;;;;;;;7.45;5.50;;;;;;;;;;5010039;28;20460;-70
2023/04/29 10:42:55;;;;;;;12.30;10.07;;;;;;;;;;5007635;28;20033;-70
2023/04/29 10:45:30;;;;;;;9.30;5.60;;;;;;;;;;5004039;28;20021;-71
2023/04/29 10:48:01;;;;;;;9.63;6.15;;;;;;;;;;5004647;28;20202;-71
2023/04/29 10:50:47;;;;;;;8.63;6.90;;;;;;;;;;5002483;28;20416;-71
2023/04/29 10:53:15;;;;;;;12.18;9.80;;;;;;;;;;5012331;28;20201;-71
2023/04/29 10:55:41;;;;;;;10.00;5.80;;;;;;;;;;5001541;28;20047;-73
2023/04/29 10:58:33;;;;;;;7.60;5.97;;;;;;;;;;5002023;28;20029;-71
2023/04/29 11:00:58;;;;;;;9.90;7.80;;;;;;;;;;5042617;28;20060;-71
2023/04/29 11:03:42;;;;;;;8.18;7.38;;;;;;;;;;5044111;28;20465;-70
2023/04/29 11:06:08;;;;;;;11.32;8.65;;;;;;;;;;5046077;28;20114;-71
2023/04/29 11:08:38;;;;;;;11.73;6.53;;;;;;;;;;5045118;28;20352;-71
2023/04/29 11:11:04;;;;;;;7.95;7.03;;;;;;;;;;5052088;28;20029;-71
2023/04/29 11:13:30;;;;;;;6.93;5.25;;;;;;;;;;5044936;28;20123;-71
2023/04/29 11:16:11;;;;;;;9.00;6.70;;;;;;;;;;5050946;28;20075;-70
2023/04/29 11:18:56;;;;;;;8.63;6.90;;;;;;;;;;5053318;28;20062;-72
2023/04/29 11:21:21;;;;;;;10.68;7.93;;;;;;;;;;5052383;28;20159;-71
2023/04/29 11:23:50;;;;;;;9.43;7.43;;;;;;;;;;5045920;28;20453;-71
2023/04/29 11:26:18;;;;;;;6.85;4.30;;;;;;;;;;5048343;28;20435;-72
2023/04/29 11:28:43;;;;;;;13.27;5.07;;;;;;;;;;5048250;28;20091;-71
2023/04/29 11:31:09;;;;;;;8.27;7.45;;;;;;;;;;5052727;28;20125;-71
2023/04/29 11:33:35;;;;;;;7.22;5.70;;;;;;;;;;5052342;28;20040;-71
2023/04/29 11:36:00;;;;;;;6.88;4.97;;;;;;;;;;5051711;28;20437;-72
2023/04/29 11:38:26;;;;;;;8.20;5.38;;;;;;;;;;5011421;28;20048;-72
2023/04/29 11:40:53;;;;;;;12.00;5.97;;;;;;;;;;5006873;28;20029;-73
2023/04/29 11:43:19;;;;;;;12.40;8.57;;;;;;;;;;5014953;28;20033;-73
2023/04/29 11:45:45;;;;;;;10.00;6.95;;;;;;;;;;5012769;28;20364;-72
2023/04/29 11:48:16;;;;;;;9.35;6.57;;;;;;;;;;5011885;28;20405;-71
2023/04/29 11:50:42;;;;;;;11.55;8.35;;;;;;;;;;5012583;28;20033;-71
2023/04/29 11:53:07;;;;;;;8.70;6.78;;;;;;;;;;5012447;28;20045;-71
2023/04/29 11:55:33;;;;;;;10.20;6.72;;;;;;;;;;5010381;28;20061;-71
2023/04/29 11:57:58;;;;;;;10.65;7.13;;;;;;;;;;5003563;28;20078;-72
2023/04/29 12:00:24;;;;;;;11.38;7.13;;;;;;;;;;5010626;28;20044;-71
2023/04/29 12:02:49;;;;;;;16.38;12.40;;;;;;;;;;5005042;28;20137;-72
2023/04/29 12:05:15;;;;;;;21.65;15.32;;;;;;;;;;5014630;28;20068;-72
2023/04/29 12:07:40;;;;;;;24.92;16.85;;;;;;;;;;5008296;28;20445;-71
2023/04/29 12:10:09;;;;;;;24.58;17.63;;;;;;;;;;5007035;28;20042;-71
2023/04/29 12:12:35;;;;;;;18.55;13.32;;;;;;;;;;5012785;28;20025;-71
2023/04/29 12:15:02;;;;;;;18.63;13.57;;;;;;;;;;5011938;28;20043;-71
2023/04/29 12:17:27;;;;;;;11.95;6.28;;;;;;;;;;5006546;28;20108;-74
2023/04/29 12:19:53;;;;;;;11.63;6.68;;;;;;;;;;4998602;28;20121;-71
2023/04/29 12:22:19;;;;;;;18.55;11.85;;;;;;;;;;5000446;28;20636;-73
2023/04/29 12:24:44;;;;;;;18.45;14.25;;;;;;;;;;5002262;28;20117;-72
2023/04/29 12:27:09;;;;;;;13.27;9.63;;;;;;;;;;5002677;28;20348;-71
2023/04/29 12:29:39;;;;;;;11.85;6.97;;;;;;;;;;5011480;28;20054;-72
2023/04/29 12:32:04;;;;;;;;;;;;;;;;;;5002857;28;20053;-71
2023/04/29 12:34:30;;;;;;;9.23;7.20;;;;;;;;;;5001185;28;19971;-73
2023/04/29 12:36:57;;;;;;;13.23;10.98;;;;;;;;;;5001629;28;20037;-71
2023/04/29 12:39:23;;;;;;;9.52;7.03;;;;;;;;;;5001013;28;20456;-73
2023/04/29 12:41:49;;;;;;;13.52;9.75;;;;;;;;;;5005004;28;20082;-73
2023/04/29 12:44:14;;;;;;;20.05;13.77;;;;;;;;;;5011088;28;20026;-71
2023/04/29 12:46:40;;;;;;;16.02;12.50;;;;;;;;;;5013466;28;20445;-73
2023/04/29 12:49:06;;;;;;;17.60;15.57;;;;;;;;;;5002276;28;20075;-70
2023/04/29 12:51:32;;;;;;;12.90;11.27;;;;;;;;;;5001100;28;20022;-72
2023/04/29 12:54:02;;;;;;;21.30;18.00;;;;;;;;;;5001372;28;20097;-71
2023/04/29 12:56:27;;;;;;;11.52;9.60;;;;;;;;;;5007752;28;20025;-71
2023/04/29 12:58:53;;;;;;;24.48;19.25;;;;;;;;;;4994678;28;20436;-71
2023/04/29 13:01:18;;;;;;;16.13;13.00;;;;;;;;;;5009788;28;20132;-71
2023/04/29 13:03:43;;;;;;;15.20;12.82;;;;;;;;;;5010012;28;20029;-71
2023/04/29 13:06:09;;;;;;;11.50;10.30;;;;;;;;;;5004348;28;20029;-73
2023/04/29 13:08:34;;;;;;;11.43;8.95;;;;;;;;;;5000730;28;20033;-71
2023/04/29 13:10:59;;;;;;;15.20;11.10;;;;;;;;;;5010193;28;20536;-73
2023/04/29 13:13:26;;;;;;;17.73;10.05;;;;;;;;;;5012335;28;20037;-71
2023/04/29 13:15:51;;;;;;;18.25;10.75;;;;;;;;;;5004042;28;20117;-71
2023/04/29 13:18:17;;;;;;;24.13;16.73;;;;;;;;;;5008674;28;20108;-72
2023/04/29 13:20:42;;;;;;;20.60;14.93;;;;;;;;;;5011155;28;20624;-73
2023/04/29 13:23:08;;;;;;;13.98;9.57;;;;;;;;;;4997797;28;20464;-72
2023/04/29 13:25:33;;;;;;;28.27;17.58;;;;;;;;;;5004988;28;21646;-73
2023/04/29 13:27:59;;;;;;;28.50;17.58;;;;;;;;;;5001542;28;20737;-72
2023/04/29 13:30:24;;;;;;;38.13;25.35;;;;;;;;;;5009628;28;20452;-71
2023/04/29 13:32:49;;;;;;;41.10;28.35;;;;;;;;;;5009119;28;21249;-71
2023/04/29 13:35:15;;;;;;;28.85;18.58;;;;;;;;;;5002502;28;20489;-73
2023/04/29 13:37:41;;;;;;;49.70;32.03;;;;;;;;;;4999543;28;20515;-72
2023/04/29 13:40:06;;;;;;;41.63;29.08;;;;;;;;;;5001164;28;20033;-72
2023/04/29 13:42:31;;;;;;;60.13;43.70;;;;;;;;;;5000001;28;20457;-73
2023/04/29 13:44:57;;;;;;;18.98;13.88;;;;;;;;;;5000079;28;20176;-72
2023/04/29 13:47:22;;;;;;;22.80;15.23;;;;;;;;;;4997992;28;20450;-72
2023/04/29 13:49:48;;;;;;;22.23;15.32;;;;;;;;;;5003689;28;20048;-73
2023/04/29 13:52:13;;;;;;;29.55;17.45;;;;;;;;;;5006651;28;20041;-71
2023/04/29 13:54:39;;;;;;;34.55;21.13;;;;;;;;;;5011686;28;20369;-72
2023/04/29 13:57:04;;;;;;;39.38;24.38;;;;;;;;;;5006780;28;20147;-72
2023/04/29 13:59:33;;;;;;;46.05;36.00;;;;;;;;;;5003742;28;20037;-72
2023/04/29 14:01:59;;;;;;;28.02;22.60;;;;;;;;;;5000784;28;20341;-72
2023/04/29 14:04:24;;;;;;;22.83;15.70;;;;;;;;;;5001641;28;20044;-72
2023/04/29 14:06:50;;;;;;;19.48;16.10;;;;;;;;;;4998976;28;20425;-71
2023/04/29 14:09:16;;;;;;;15.55;12.05;;;;;;;;;;5000874;28;20032;-71
2023/04/29 14:11:41;;;;;;;22.55;19.90;;;;;;;;;;5001781;28;20041;-71
2023/04/29 14:14:06;;;;;;;17.65;14.05;;;;;;;;;;5005221;28;20025;-73
2023/04/29 14:16:32;;;;;;;13.80;10.73;;;;;;;;;;5009479;28;20021;-70
2023/04/29 14:18:57;;;;;;;17.92;13.07;;;;;;;;;;5011761;28;20053;-71